Time;durP1;ratioP1;P1;durP2;ratioP2;P2;SDS_P1;SDS_P2;PMS_P1;PMS_P2;Temp;Humidity;BMP_temperature;BMP_pressure;BME280_temperature;BME280_humidity;BME280_pressure;Samples;Min_cycle;Max_cycle;Signal;HPM_P1;HPM_P2
2021/11/03 00:00:22;;;;;;;4.10;3.70;;;10.50;99.90;;;;;;5011875;28;20557;-53
2021/11/03 00:02:48;;;;;;;5.03;4.20;;;10.40;99.90;;;;;;5012259;28;20198;-49
2021/11/03 00:05:15;;;;;;;4.07;3.67;;;10.30;99.90;;;;;;5015641;28;20313;-55
2021/11/03 00:07:42;;;;;;;4.17;3.77;;;10.30;99.90;;;;;;5010360;28;20185;-53
2021/11/03 00:10:10;;;;;;;3.60;3.30;;;10.50;99.90;;;;;;5013098;28;20821;-53
2021/11/03 00:12:37;;;;;;;5.10;3.40;;;10.60;99.90;;;;;;5014882;28;20439;-54
2021/11/03 00:15:03;;;;;;;4.17;3.60;;;10.70;99.90;;;;;;5012835;28;20435;-53
2021/11/03 00:17:29;;;;;;;5.77;3.50;;;10.70;99.90;;;;;;5013468;28;20447;-49
2021/11/03 00:19:54;;;;;;;3.83;2.77;;;10.60;99.90;;;;;;5013242;28;21023;-53
2021/11/03 00:22:20;;;;;;;4.13;2.90;;;10.60;99.90;;;;;;5013945;28;20209;-54
2021/11/03 00:24:46;;;;;;;4.00;3.57;;;10.60;99.90;;;;;;5013279;28;20275;-55
2021/11/03 00:27:12;;;;;;;3.57;3.10;;;10.70;99.90;;;;;;5011635;28;20212;-55
2021/11/03 00:29:38;;;;;;;4.60;3.73;;;10.60;99.90;;;;;;5015345;28;20534;-53
2021/11/03 00:32:09;;;;;;;3.90;3.17;;;10.60;99.90;;;;;;5011308;28;22148;-55
2021/11/03 00:34:36;;;;;;;3.40;3.10;;;10.70;99.90;;;;;;5015124;28;20195;-56
2021/11/03 00:37:01;;;;;;;3.10;2.80;;;10.60;99.90;;;;;;5012971;28;20428;-50
2021/11/03 00:39:27;;;;;;;2.70;2.50;;;10.60;99.90;;;;;;5015182;28;20879;-51
2021/11/03 00:41:53;;;;;;;3.23;2.53;;;10.70;99.90;;;;;;5011664;28;20975;-50
2021/11/03 00:44:21;;;;;;;4.80;3.70;;;10.60;99.90;;;;;;5014479;28;20196;-54
2021/11/03 00:46:46;;;;;;;3.50;2.77;;;10.50;99.90;;;;;;5014158;28;20830;-54
2021/11/03 00:49:12;;;;;;;4.90;3.60;;;10.40;99.90;;;;;;5012697;28;20438;-57
2021/11/03 00:51:38;;;;;;;3.50;2.80;;;10.30;99.90;;;;;;5013392;28;20213;-55
2021/11/03 00:54:04;;;;;;;3.30;2.80;;;10.50;99.90;;;;;;5012259;28;20447;-53
2021/11/03 00:56:29;;;;;;;5.50;2.70;;;10.60;99.90;;;;;;5008160;28;20567;-53
2021/11/03 00:58:55;;;;;;;2.87;2.57;;;10.50;99.90;;;;;;5013126;28;20201;-56
2021/11/03 01:01:21;;;;;;;3.30;2.80;;;10.60;99.90;;;;;;5010544;28;20225;-56
2021/11/03 01:03:47;;;;;;;3.20;2.90;;;10.50;99.90;;;;;;5012343;28;20204;-54
2021/11/03 01:06:13;;;;;;;2.97;2.67;;;10.50;99.90;;;;;;5011339;28;20697;-55
2021/11/03 01:08:38;;;;;;;4.50;2.73;;;10.60;99.90;;;;;;5019287;28;20189;-56
2021/11/03 01:11:04;;;;;;;2.90;2.50;;;10.30;99.90;;;;;;5020375;28;20455;-53
2021/11/03 01:13:30;;;;;;;3.10;2.30;;;10.40;99.90;;;;;;5004926;28;20924;-54
2021/11/03 01:15:57;;;;;;;3.70;2.90;;;10.30;99.90;;;;;;5017202;28;20526;-54
2021/11/03 01:18:28;;;;;;;4.40;2.37;;;10.40;99.90;;;;;;5015307;28;20435;-52
2021/11/03 01:20:55;;;;;;;2.70;2.50;;;10.40;99.90;;;;;;5015883;28;21358;-53
2021/11/03 01:23:22;;;;;;;2.90;2.40;;;10.50;99.90;;;;;;5014737;28;20436;-56
2021/11/03 01:25:48;;;;;;;4.00;2.73;;;10.60;99.90;;;;;;5014357;28;20455;-55
2021/11/03 01:28:14;;;;;;;5.10;2.50;;;10.60;99.90;;;;;;5017667;28;20447;-55
2021/11/03 01:30:40;;;;;;;3.40;2.70;;;10.70;99.90;;;;;;5013556;28;20469;-56
2021/11/03 01:33:06;;;;;;;3.00;2.57;;;10.80;99.90;;;;;;5020362;28;21007;-55
2021/11/03 01:35:32;;;;;;;4.57;2.60;;;10.80;99.90;;;;;;5016631;28;20610;-57
2021/11/03 01:37:58;;;;;;;4.53;2.63;;;10.80;99.90;;;;;;5015367;28;20209;-54
2021/11/03 01:40:27;;;;;;;3.10;2.80;;;10.60;99.90;;;;;;5013882;28;20462;-55
2021/11/03 01:42:53;;;;;;;4.27;2.77;;;10.70;99.90;;;;;;5013371;28;20424;-54
2021/11/03 01:45:23;;;;;;;3.00;2.70;;;10.70;99.90;;;;;;5014974;28;20482;-55
2021/11/03 01:47:55;;;;;;;3.87;2.60;;;10.50;99.90;;;;;;5014044;28;20180;-54
2021/11/03 01:50:41;;;;;;;4.07;2.50;;;10.60;99.90;;;;;;5017198;28;20527;-51
2021/11/03 01:53:12;;;;;;;2.90;2.33;;;10.50;99.90;;;;;;5015228;28;21248;-53
2021/11/03 01:55:52;;;;;;;3.43;2.50;;;10.30;99.90;;;;;;5015094;28;20439;-55
2021/11/03 01:58:22;;;;;;;2.83;2.23;;;10.30;99.90;;;;;;5013190;28;20432;-53
2021/11/03 02:00:52;;;;;;;3.20;2.57;;;10.50;99.90;;;;;;5000287;28;20549;-52
2021/11/03 02:03:21;;;;;;;2.60;2.30;;;10.50;99.90;;;;;;5016874;28;20432;-54
2021/11/03 02:05:51;;;;;;;3.63;2.30;;;10.50;99.90;;;;;;5013845;28;20464;-55
2021/11/03 02:08:18;;;;;;;4.50;2.40;;;10.50;99.90;;;;;;5015097;28;20457;-55
2021/11/03 02:10:44;;;;;;;3.90;2.50;;;10.50;99.90;;;;;;5017560;28;20439;-55
2021/11/03 02:13:12;;;;;;;3.40;2.70;;;10.50;99.90;;;;;;5016191;28;20552;-56
2021/11/03 02:15:39;;;;;;;3.57;2.40;;;10.50;99.90;;;;;;5014705;28;20192;-53
2021/11/03 02:18:06;;;;;;;2.67;2.47;;;10.40;99.90;;;;;;5015565;28;20428;-54
2021/11/03 02:20:32;;;;;;;4.00;2.33;;;10.40;99.90;;;;;;5016100;28;20459;-50
2021/11/03 02:23:04;;;;;;;6.30;3.10;;;10.60;99.90;;;;;;5013841;28;20486;-54
2021/11/03 02:25:37;;;;;;;4.43;2.40;;;10.60;99.90;;;;;;5020086;28;20558;-50
2021/11/03 02:28:05;;;;;;;3.60;2.40;;;10.50;99.90;;;;;;5016650;28;20443;-56
2021/11/03 02:30:30;;;;;;;2.20;1.87;;;10.50;99.90;;;;;;5013740;28;20462;-53
2021/11/03 02:33:00;;;;;;;3.40;2.50;;;10.60;99.90;;;;;;5017822;28;20928;-54
2021/11/03 02:35:25;;;;;;;4.40;2.40;;;10.50;99.90;;;;;;5014869;28;20189;-53
2021/11/03 02:37:54;;;;;;;2.73;2.10;;;10.40;99.90;;;;;;5013493;28;20424;-53
2021/11/03 02:40:27;;;;;;;3.47;2.30;;;10.40;99.90;;;;;;5009948;28;20773;-56
2021/11/03 02:42:58;;;;;;;4.07;2.40;;;10.40;99.90;;;;;;5014189;28;20436;-55
2021/11/03 02:45:41;;;;;;;3.00;2.23;;;10.40;99.90;;;;;;5014294;28;20475;-50
2021/11/03 02:48:07;;;;;;;2.20;1.90;;;10.10;99.90;;;;;;5011491;28;21689;-51
2021/11/03 02:50:33;;;;;;;2.40;2.20;;;10.20;99.90;;;;;;5014239;28;20457;-56
2021/11/03 02:52:58;;;;;;;3.17;1.87;;;10.20;99.90;;;;;;5014860;28;20937;-52
2021/11/03 02:55:24;;;;;;;4.23;2.13;;;10.10;99.90;;;;;;5012402;28;20204;-56
2021/11/03 02:57:50;;;;;;;3.30;2.00;;;9.90;99.90;;;;;;5017499;28;20267;-50
2021/11/03 03:00:21;;;;;;;2.17;1.90;;;10.00;99.90;;;;;;5013592;28;20435;-54
2021/11/03 03:02:47;;;;;;;2.47;1.60;;;10.10;99.90;;;;;;5014122;28;20193;-53
2021/11/03 03:05:13;;;;;;;3.33;2.00;;;10.20;99.90;;;;;;5007486;28;20464;-54
2021/11/03 03:07:39;;;;;;;2.53;1.70;;;10.10;99.90;;;;;;5015148;28;20304;-52
2021/11/03 03:10:07;;;;;;;2.20;1.73;;;10.30;99.90;;;;;;5016241;28;20185;-52
2021/11/03 03:12:33;;;;;;;2.43;2.13;;;10.30;99.90;;;;;;5015038;28;20432;-56
2021/11/03 03:14:59;;;;;;;3.03;1.73;;;10.50;99.90;;;;;;5016893;28;20432;-53
2021/11/03 03:17:25;;;;;;;2.50;1.70;;;10.40;99.90;;;;;;5012232;28;20436;-54
2021/11/03 03:19:52;;;;;;;3.13;1.80;;;10.40;99.90;;;;;;5013011;28;20450;-56
2021/11/03 03:22:19;;;;;;;2.37;2.00;;;10.30;99.90;;;;;;5014881;28;20470;-53
2021/11/03 03:24:44;;;;;;;2.30;1.73;;;10.30;99.90;;;;;;5009967;28;20475;-54
2021/11/03 03:27:10;;;;;;;2.53;1.87;;;10.30;99.90;;;;;;5012828;28;20607;-54
2021/11/03 03:29:36;;;;;;;4.60;2.20;;;10.50;99.90;;;;;;5013459;28;20188;-51
2021/11/03 03:32:02;;;;;;;3.10;1.90;;;10.70;99.90;;;;;;5011776;28;20976;-54
2021/11/03 03:34:28;;;;;;;2.23;2.03;;;10.80;99.90;;;;;;5012297;28;20458;-52
2021/11/03 03:36:56;;;;;;;3.60;1.87;;;10.60;99.90;;;;;;5013224;28;20189;-55
2021/11/03 03:39:24;;;;;;;2.27;1.80;;;10.70;99.90;;;;;;5013176;28;20796;-55
2021/11/03 03:42:03;;;;;;;2.03;1.70;;;10.50;99.90;;;;;;5014682;28;20496;-55
2021/11/03 03:44:29;;;;;;;2.77;1.80;;;10.50;99.90;;;;;;5014797;28;20535;-56
2021/11/03 03:46:54;;;;;;;3.20;1.70;;;10.50;99.90;;;;;;5009918;28;20905;-54
2021/11/03 03:49:20;;;;;;;5.43;4.27;;;10.60;99.90;;;;;;5015636;28;20531;-55
2021/11/03 03:51:46;;;;;;;2.40;1.80;;;10.70;99.90;;;;;;5011779;28;20216;-51
2021/11/03 03:54:12;;;;;;;3.47;1.73;;;10.80;99.90;;;;;;5019977;28;20425;-51
2021/11/03 03:56:38;;;;;;;2.20;1.80;;;10.90;99.90;;;;;;5010920;28;20196;-53
2021/11/03 03:59:03;;;;;;;5.93;2.10;;;10.80;99.90;;;;;;5012404;28;20186;-57
2021/11/03 04:01:29;;;;;;;2.70;2.20;;;10.90;99.90;;;;;;5014864;28;20470;-55
2021/11/03 04:03:56;;;;;;;6.00;2.67;;;10.70;99.90;;;;;;4994026;28;20654;-54
2021/11/03 04:06:22;;;;;;;3.70;2.20;;;10.70;99.90;;;;;;5015686;28;20463;-57
2021/11/03 04:08:48;;;;;;;2.20;2.00;;;10.80;99.90;;;;;;5012306;28;20519;-51
2021/11/03 04:11:14;;;;;;;2.27;2.07;;;10.80;99.90;;;;;;5013523;28;20543;-54
2021/11/03 04:13:41;;;;;;;2.60;2.40;;;10.70;99.90;;;;;;5014365;28;20278;-58
2021/11/03 04:16:06;;;;;;;3.70;2.20;;;10.70;99.90;;;;;;5012823;28;20460;-54
2021/11/03 04:18:32;;;;;;;3.10;2.20;;;10.70;99.90;;;;;;5014025;28;20514;-56
2021/11/03 04:20:58;;;;;;;2.47;1.90;;;10.80;99.90;;;;;;5008303;28;20215;-56
2021/11/03 04:23:24;;;;;;;3.00;2.40;;;10.70;99.90;;;;;;5014748;28;20180;-52
2021/11/03 04:25:49;;;;;;;3.40;2.57;;;10.90;99.90;;;;;;5011237;28;20204;-54
2021/11/03 04:28:16;;;;;;;3.43;2.03;;;10.80;99.90;;;;;;5015093;28;20192;-54
2021/11/03 04:30:42;;;;;;;2.47;2.27;;;10.80;99.90;;;;;;5014785;28;20200;-56
2021/11/03 04:33:08;;;;;;;4.63;2.30;;;10.80;99.90;;;;;;5010031;28;20527;-57
2021/11/03 04:35:35;;;;;;;5.43;2.60;;;10.80;99.90;;;;;;5014654;28;20527;-52
2021/11/03 04:38:02;;;;;;;3.50;2.73;;;10.90;99.90;;;;;;5002278;28;20439;-50
2021/11/03 04:40:28;;;;;;;3.20;2.17;;;10.80;99.90;;;;;;5014780;28;20543;-55
2021/11/03 04:42:54;;;;;;;2.40;2.20;;;10.80;99.90;;;;;;5018151;28;20451;-53
2021/11/03 04:45:21;;;;;;;3.80;2.53;;;10.70;99.90;;;;;;5017733;28;20467;-55
2021/11/03 04:47:48;;;;;;;2.93;1.97;;;10.70;99.90;;;;;;5019270;28;20518;-56
2021/11/03 04:50:20;;;;;;;2.60;2.07;;;10.90;99.90;;;;;;5017466;28;20411;-55
2021/11/03 04:52:46;;;;;;;2.33;2.13;;;11.00;99.90;;;;;;5017866;28;20450;-56
2021/11/03 04:55:12;;;;;;;2.60;2.10;;;10.80;99.90;;;;;;5015640;28;20436;-54
2021/11/03 04:57:38;;;;;;;2.00;1.80;;;10.70;99.90;;;;;;5017376;28;20193;-56
2021/11/03 05:00:08;;;;;;;2.20;2.00;;;10.60;99.90;;;;;;5017869;28;20432;-56
2021/11/03 05:02:33;;;;;;;2.23;1.93;;;10.70;99.90;;;;;;5015115;28;20204;-57
2021/11/03 05:04:59;;;;;;;2.20;2.00;;;10.80;99.90;;;;;;5015303;28;21125;-56
2021/11/03 05:07:25;;;;;;;5.00;2.63;;;10.80;99.90;;;;;;5016142;28;20382;-54
2021/11/03 05:09:50;;;;;;;3.07;2.10;;;10.70;99.90;;;;;;5018371;28;20189;-55
2021/11/03 05:12:16;;;;;;;3.17;2.47;;;10.80;99.90;;;;;;5014916;28;20209;-54
2021/11/03 05:14:42;;;;;;;4.10;2.60;;;10.80;99.90;;;;;;5016981;28;20248;-56
2021/11/03 05:17:07;;;;;;;3.60;2.70;;;10.70;99.90;;;;;;5013795;28;20220;-54
2021/11/03 05:19:33;;;;;;;3.00;2.20;;;10.80;99.90;;;;;;5015598;28;20446;-55
2021/11/03 05:22:01;;;;;;;3.00;2.37;;;10.70;99.90;;;;;;5013302;28;20200;-55
2021/11/03 05:24:27;;;;;;;4.73;2.97;;;10.80;99.90;;;;;;5015334;28;20438;-54
2021/11/03 05:26:54;;;;;;;4.33;2.33;;;10.70;99.90;;;;;;5017038;28;20458;-53
2021/11/03 05:29:21;;;;;;;3.10;2.47;;;10.70;99.90;;;;;;5015696;28;20830;-56
2021/11/03 05:31:47;;;;;;;3.63;2.50;;;10.70;99.90;;;;;;5017272;28;20497;-51
2021/11/03 05:34:13;;;;;;;3.00;2.57;;;10.70;99.90;;;;;;5013033;28;20443;-54
2021/11/03 05:36:39;;;;;;;3.80;2.33;;;10.60;99.90;;;;;;5012686;28;20428;-55
2021/11/03 05:39:09;;;;;;;2.50;2.17;;;10.50;99.90;;;;;;5014226;28;20541;-52
2021/11/03 05:41:38;;;;;;;2.33;2.10;;;10.50;99.90;;;;;;5012478;28;20463;-54
2021/11/03 05:44:06;;;;;;;3.00;2.50;;;10.60;99.90;;;;;;5018164;28;20430;-56
2021/11/03 05:46:36;;;;;;;3.00;2.80;;;10.70;99.90;;;;;;5016861;28;20471;-54
2021/11/03 05:49:05;;;;;;;2.90;2.10;;;10.70;99.90;;;;;;5017292;28;20432;-56
2021/11/03 05:51:32;;;;;;;2.97;2.47;;;10.70;99.90;;;;;;5015822;28;20443;-53
2021/11/03 05:53:58;;;;;;;4.40;3.07;;;10.70;99.90;;;;;;5014265;28;20995;-57
2021/11/03 05:56:23;;;;;;;2.50;2.30;;;10.70;99.90;;;;;;5013955;28;20431;-53
2021/11/03 05:58:49;;;;;;;4.67;3.00;;;10.70;99.90;;;;;;5013333;28;20658;-56
2021/11/03 06:01:15;;;;;;;3.30;2.53;;;10.60;99.90;;;;;;5013484;28;20288;-55
2021/11/03 06:03:40;;;;;;;3.63;2.50;;;10.60;99.90;;;;;;5015015;28;20448;-57
2021/11/03 06:06:06;;;;;;;2.70;2.33;;;10.70;99.90;;;;;;5016315;28;20206;-56
2021/11/03 06:08:32;;;;;;;2.87;2.50;;;10.70;99.90;;;;;;5015923;28;20181;-53
2021/11/03 06:10:58;;;;;;;2.50;2.30;;;10.60;99.90;;;;;;5014092;28;20737;-54
2021/11/03 06:13:24;;;;;;;3.00;2.43;;;10.60;99.90;;;;;;5015787;28;20275;-57
2021/11/03 06:15:50;;;;;;;3.53;2.83;;;10.70;99.90;;;;;;5012515;28;20439;-55
2021/11/03 06:18:15;;;;;;;2.87;2.23;;;10.70;99.90;;;;;;5013066;28;20182;-56
2021/11/03 06:20:41;;;;;;;2.90;2.43;;;10.90;99.90;;;;;;5014718;28;20216;-54
2021/11/03 06:23:07;;;;;;;6.03;2.53;;;10.80;99.90;;;;;;5012307;28;20181;-54
2021/11/03 06:25:35;;;;;;;4.57;2.60;;;10.70;99.90;;;;;;5016224;28;20255;-51
2021/11/03 06:28:00;;;;;;;4.13;3.30;;;10.60;99.90;;;;;;5008823;28;20229;-52
2021/11/03 06:30:29;;;;;;;3.17;2.87;;;10.60;99.90;;;;;;5014604;28;20463;-52
2021/11/03 06:32:55;;;;;;;3.33;2.70;;;10.50;99.90;;;;;;5012432;28;20590;-55
2021/11/03 06:35:22;;;;;;;2.90;2.60;;;10.40;99.90;;;;;;5015415;28;20464;-56
2021/11/03 06:37:48;;;;;;;4.20;3.00;;;10.50;99.90;;;;;;5012445;28;20193;-53
2021/11/03 06:40:17;;;;;;;2.90;2.60;;;10.60;99.90;;;;;;5014390;28;20498;-55
2021/11/03 06:42:43;;;;;;;2.40;2.20;;;10.60;99.90;;;;;;5014320;28;20284;-53
2021/11/03 06:45:12;;;;;;;3.10;2.90;;;10.70;99.90;;;;;;5014008;28;20558;-54
2021/11/03 06:47:37;;;;;;;3.43;3.13;;;10.50;99.90;;;;;;5014633;28;20725;-55
2021/11/03 06:50:05;;;;;;;2.73;2.40;;;10.60;99.90;;;;;;5016246;28;20427;-51
2021/11/03 06:52:30;;;;;;;3.33;2.60;;;10.60;99.90;;;;;;4997238;28;20756;-55
2021/11/03 06:54:56;;;;;;;3.10;2.80;;;10.70;99.90;;;;;;4995852;28;20442;-52
2021/11/03 06:57:22;;;;;;;4.70;3.00;;;10.50;99.90;;;;;;5010956;28;20435;-56
2021/11/03 06:59:48;;;;;;;3.33;3.00;;;10.40;99.90;;;;;;5014406;28;20189;-56
2021/11/03 07:02:18;;;;;;;4.80;3.90;;;10.30;99.90;;;;;;5011666;28;20232;-57
2021/11/03 07:04:43;;;;;;;3.53;2.70;;;10.40;99.90;;;;;;5013209;28;20424;-54
2021/11/03 07:07:10;;;;;;;3.97;2.60;;;10.40;99.90;;;;;;5015817;28;20669;-57
2021/11/03 07:09:36;;;;;;;4.10;2.80;;;10.80;99.90;;;;;;5012803;28;20185;-54
2021/11/03 07:12:02;;;;;;;3.40;2.90;;;11.20;99.90;;;;;;5012340;28;20456;-55
2021/11/03 07:14:28;;;;;;;2.83;2.40;;;11.40;99.90;;;;;;5013513;28;21171;-54
2021/11/03 07:16:54;;;;;;;3.87;2.70;;;11.50;99.90;;;;;;5012509;28;20455;-53
2021/11/03 07:19:20;;;;;;;4.80;4.23;;;11.60;99.90;;;;;;5011667;28;20193;-56
2021/11/03 07:21:46;;;;;;;4.10;2.70;;;11.60;99.90;;;;;;5012533;28;20248;-51
2021/11/03 07:24:13;;;;;;;3.40;2.60;;;11.70;99.90;;;;;;5011903;28;20871;-51
2021/11/03 07:26:43;;;;;;;5.13;3.63;;;11.80;99.90;;;;;;5015110;28;20216;-55
2021/11/03 07:29:10;;;;;;;7.53;4.77;;;11.80;99.90;;;;;;5013544;28;20519;-56
2021/11/03 07:31:36;;;;;;;11.40;4.23;;;11.80;99.90;;;;;;5012173;28;20464;-55
2021/11/03 07:34:02;;;;;;;5.83;4.00;;;11.90;99.90;;;;;;5014603;28;21884;-55
2021/11/03 07:36:30;;;;;;;4.63;3.27;;;11.90;99.90;;;;;;5016320;28;20270;-55
2021/11/03 07:38:56;;;;;;;4.20;3.13;;;11.90;99.90;;;;;;5016833;28;21307;-54
2021/11/03 07:41:22;;;;;;;3.10;2.80;;;11.90;99.90;;;;;;5014932;28;20462;-55
2021/11/03 07:43:48;;;;;;;4.17;3.00;;;11.90;99.90;;;;;;5011025;28;20435;-56
2021/11/03 07:46:14;;;;;;;3.93;3.07;;;12.00;99.90;;;;;;5015167;28;20980;-56
2021/11/03 07:48:40;;;;;;;5.57;3.80;;;11.90;99.90;;;;;;5011149;28;20306;-53
2021/11/03 07:51:10;;;;;;;4.57;3.17;;;12.00;99.90;;;;;;5011133;28;20482;-57
2021/11/03 07:53:37;;;;;;;3.00;2.70;;;12.10;99.90;;;;;;5008197;28;20602;-58
2021/11/03 07:56:06;;;;;;;4.00;2.90;;;12.10;99.90;;;;;;5013958;28;20443;-55
2021/11/03 07:58:36;;;;;;;3.43;2.70;;;11.70;99.90;;;;;;5012930;28;20446;-55
2021/11/03 08:01:03;;;;;;;3.30;2.67;;;11.80;99.90;;;;;;5018327;28;20454;-56
2021/11/03 08:03:28;;;;;;;3.23;2.70;;;11.80;99.90;;;;;;5011871;28;20975;-55
2021/11/03 08:05:55;;;;;;;3.70;2.80;;;11.90;99.90;;;;;;5013051;28;20502;-56
2021/11/03 08:08:24;;;;;;;3.20;2.90;;;11.70;99.90;;;;;;5015228;28;20193;-56
2021/11/03 08:10:53;;;;;;;3.43;2.80;;;11.60;99.90;;;;;;5010633;28;20452;-53
2021/11/03 08:13:19;;;;;;;3.60;2.93;;;11.50;99.90;;;;;;5017155;28;20770;-57
2021/11/03 08:15:53;;;;;;;2.97;2.73;;;11.50;99.90;;;;;;5011657;28;20498;-53
2021/11/03 08:18:22;;;;;;;4.27;3.23;;;11.60;99.90;;;;;;5017769;28;20427;-53
2021/11/03 08:20:48;;;;;;;3.80;3.03;;;11.50;99.90;;;;;;5012692;28;20513;-50
2021/11/03 08:23:14;;;;;;;3.90;2.63;;;11.60;99.90;;;;;;5018000;28;20840;-49
2021/11/03 08:25:41;;;;;;;4.20;2.60;;;11.60;99.90;;;;;;5011795;28;20274;-50
2021/11/03 08:28:06;;;;;;;3.17;2.87;;;11.60;99.90;;;;;;5013224;28;20951;-50
2021/11/03 08:30:33;;;;;;;8.30;4.47;;;11.60;99.90;;;;;;5014964;28;20494;-53
2021/11/03 08:33:05;;;;;;;5.97;4.70;;;11.70;99.90;;;;;;5016129;28;20889;-52
2021/11/03 08:35:31;;;;;;;7.27;6.20;;;11.80;99.90;;;;;;5015734;28;20431;-53
2021/11/03 08:38:03;;;;;;;10.93;6.00;;;11.80;99.90;;;;;;5011023;28;20444;-53
2021/11/03 08:40:31;;;;;;;8.50;5.87;;;11.80;99.90;;;;;;5016982;28;20542;-52
2021/11/03 08:42:59;;;;;;;7.80;5.90;;;11.80;99.90;;;;;;5011951;28;20463;-56
2021/11/03 08:45:26;;;;;;;7.80;5.37;;;11.90;99.90;;;;;;5001543;28;20471;-55
2021/11/03 08:47:51;;;;;;;4.43;3.80;;;11.80;99.90;;;;;;5009759;28;20466;-55
2021/11/03 08:50:21;;;;;;;4.87;3.80;;;11.90;99.90;;;;;;5013664;28;20476;-57
2021/11/03 08:52:47;;;;;;;4.57;3.20;;;11.90;99.90;;;;;;5013843;28;20208;-53
2021/11/03 08:55:13;;;;;;;14.20;3.50;;;11.90;99.90;;;;;;5012655;28;21017;-55
2021/11/03 08:57:39;;;;;;;3.53;3.10;;;11.80;99.90;;;;;;5010145;28;20246;-54
2021/11/03 09:00:12;;;;;;;3.23;2.43;;;11.70;99.90;;;;;;5017473;28;20491;-56
2021/11/03 09:02:37;;;;;;;4.90;3.00;;;11.80;99.90;;;;;;5010112;28;20944;-54
2021/11/03 09:05:04;;;;;;;4.07;2.60;;;11.60;99.90;;;;;;5016423;28;20493;-52
2021/11/03 09:07:32;;;;;;;4.13;3.00;;;11.50;99.90;;;;;;5013009;28;20192;-56
2021/11/03 09:09:59;;;;;;;6.13;2.60;;;11.50;99.90;;;;;;5009189;28;20434;-55
2021/11/03 09:12:24;;;;;;;7.07;3.93;;;11.70;99.90;;;;;;5011400;28;20455;-55
2021/11/03 09:14:50;;;;;;;3.83;2.83;;;11.80;99.90;;;;;;5008213;28;20439;-54
2021/11/03 09:17:15;;;;;;;4.57;3.20;;;11.80;99.90;;;;;;5013464;28;20650;-53
2021/11/03 09:19:42;;;;;;;3.77;3.30;;;11.80;99.90;;;;;;5008598;28;20185;-51
2021/11/03 09:22:07;;;;;;;5.43;4.50;;;11.80;99.90;;;;;;5013091;28;20247;-55
2021/11/03 09:24:37;;;;;;;6.30;5.00;;;11.90;99.90;;;;;;5014061;28;20467;-52
2021/11/03 09:27:11;;;;;;;8.00;5.90;;;11.90;99.90;;;;;;5010211;28;20693;-55
2021/11/03 09:29:36;;;;;;;5.87;5.00;;;12.00;99.90;;;;;;5013096;28;20467;-55
2021/11/03 09:32:04;;;;;;;7.50;4.80;;;12.10;99.90;;;;;;5014067;28;20476;-56
2021/11/03 09:34:30;;;;;;;4.17;3.77;;;12.10;99.90;;;;;;5005725;28;20184;-57
2021/11/03 09:36:59;;;;;;;6.70;4.37;;;12.10;99.90;;;;;;5017445;28;20802;-53
2021/11/03 09:39:26;;;;;;;5.10;3.70;;;12.10;99.90;;;;;;5016842;28;20526;-55
2021/11/03 09:41:53;;;;;;;5.23;4.50;;;12.00;99.90;;;;;;5013311;28;20466;-56
2021/11/03 09:44:24;;;;;;;5.03;4.50;;;11.60;99.90;;;;;;5015742;28;20494;-56
2021/11/03 09:47:15;;;;;;;4.70;4.10;;;11.60;99.90;;;;;;5021835;28;20464;-53
2021/11/03 09:49:58;;;;;;;5.33;4.73;;;11.50;99.90;;;;;;5015111;28;20441;-56
2021/11/03 09:52:37;;;;;;;5.10;4.10;;;11.50;99.90;;;;;;5014734;28;20469;-55
2021/11/03 09:55:27;;;;;;;5.33;4.83;;;11.60;99.90;;;;;;5015693;28;20604;-54
2021/11/03 09:58:10;;;;;;;7.57;4.97;;;11.50;99.90;;;;;;5012580;28;20446;-52
2021/11/03 10:01:00;;;;;;;4.93;4.50;;;11.40;99.90;;;;;;5015968;28;20517;-54
2021/11/03 10:03:45;;;;;;;6.50;5.80;;;11.40;99.90;;;;;;5018751;28;20830;-52
2021/11/03 10:06:34;;;;;;;6.10;5.50;;;11.30;99.90;;;;;;5012094;28;20737;-53
2021/11/03 10:09:00;;;;;;;8.33;5.63;;;11.20;99.90;;;;;;5010093;28;20444;-54
2021/11/03 10:11:34;;;;;;;8.57;5.40;;;11.20;99.90;;;;;;5014362;28;20446;-55
2021/11/03 10:14:00;;;;;;;9.03;6.30;;;11.20;99.90;;;;;;5013943;28;20240;-53
2021/11/03 10:16:48;;;;;;;7.03;5.00;;;11.00;99.90;;;;;;5000274;28;20530;-56
2021/11/03 10:19:14;;;;;;;7.57;4.30;;;10.90;99.90;;;;;;5013915;28;20489;-53
2021/11/03 10:21:56;;;;;;;6.93;5.17;;;10.80;99.90;;;;;;5004759;28;20451;-53
2021/11/03 10:24:38;;;;;;;6.40;4.73;;;10.70;99.90;;;;;;5013094;28;20199;-50
2021/11/03 10:27:09;;;;;;;4.40;4.00;;;10.60;99.90;;;;;;5016904;28;20470;-52
2021/11/03 10:29:48;;;;;;;7.80;4.70;;;10.70;99.90;;;;;;5013272;28;20529;-55
2021/11/03 10:32:40;;;;;;;5.30;4.80;;;10.70;99.90;;;;;;5015048;28;20873;-56
2021/11/03 10:35:15;;;;;;;5.10;4.60;;;10.80;99.90;;;;;;5018165;28;20551;-56
2021/11/03 10:37:44;;;;;;;6.03;4.30;;;10.90;99.90;;;;;;5015457;28;20430;-55
2021/11/03 10:40:42;;;;;;;7.77;4.10;;;11.00;99.90;;;;;;5012036;28;20427;-56
2021/11/03 10:43:26;;;;;;;6.23;4.20;;;10.90;99.90;;;;;;5017044;28;20490;-55
2021/11/03 10:46:23;;;;;;;6.40;4.00;;;10.80;99.90;;;;;;5019485;28;20529;-48
2021/11/03 10:48:52;;;;;;;6.40;4.23;;;10.80;99.90;;;;;;5011565;28;20452;-55
2021/11/03 10:51:41;;;;;;;9.07;4.77;;;11.10;99.90;;;;;;4987078;28;20472;-55
2021/11/03 10:54:19;;;;;;;3.97;3.57;;;11.00;99.90;;;;;;5014987;28;20427;-52
2021/11/03 10:56:57;;;;;;;4.73;4.03;;;11.10;99.90;;;;;;5012700;28;20848;-55
2021/11/03 10:59:25;;;;;;;9.53;4.60;;;11.10;99.90;;;;;;5019640;28;20437;-56
2021/11/03 11:01:54;;;;;;;4.20;3.80;;;11.10;99.90;;;;;;5017119;28;20443;-55
2021/11/03 11:04:36;;;;;;;5.43;4.27;;;11.10;99.90;;;;;;5020918;28;20441;-55
2021/11/03 11:07:17;;;;;;;5.47;4.57;;;11.20;99.90;;;;;;5014934;28;20460;-56
2021/11/03 11:09:48;;;;;;;5.00;3.90;;;11.20;99.90;;;;;;5015562;28;20423;-54
2021/11/03 11:12:31;;;;;;;7.33;5.10;;;11.30;99.90;;;;;;5005214;28;20891;-54
2021/11/03 11:15:00;;;;;;;6.53;4.20;;;11.30;99.90;;;;;;5017764;28;20834;-55
2021/11/03 11:17:36;;;;;;;5.37;4.87;;;11.40;99.90;;;;;;5002351;28;20431;-54
2021/11/03 11:20:23;;;;;;;5.60;5.00;;;11.30;99.90;;;;;;5004559;28;20444;-54
2021/11/03 11:23:22;;;;;;;4.93;4.07;;;11.30;99.90;;;;;;5016270;28;20542;-55
2021/11/03 11:26:16;;;;;;;8.77;5.90;;;11.20;99.90;;;;;;5014201;28;20506;-54
2021/11/03 11:29:06;;;;;;;5.60;4.33;;;11.20;99.90;;;;;;5021601;28;20443;-52
2021/11/03 11:31:45;;;;;;;4.30;3.87;;;11.30;99.90;;;;;;5014285;28;20459;-54
2021/11/03 11:34:35;;;;;;;5.93;4.80;;;11.10;99.90;;;;;;5016451;28;20423;-54
2021/11/03 11:37:19;;;;;;;6.90;4.70;;;11.20;99.90;;;;;;4997613;28;21145;-54
2021/11/03 11:40:02;;;;;;;4.60;4.20;;;11.20;99.90;;;;;;5016242;28;20435;-51
2021/11/03 11:42:46;;;;;;;5.70;5.20;;;11.20;99.90;;;;;;5013270;28;20446;-51
2021/11/03 11:45:19;;;;;;;5.03;4.53;;;11.20;99.90;;;;;;5019855;28;20483;-53
2021/11/03 11:48:11;;;;;;;5.83;5.23;;;11.30;99.90;;;;;;5013651;28;20459;-55
2021/11/03 11:50:47;;;;;;;6.73;5.07;;;11.30;99.90;;;;;;5014497;28;20448;-53
2021/11/03 11:53:32;;;;;;;5.93;5.03;;;11.20;99.90;;;;;;5019789;28;20530;-49
2021/11/03 11:56:09;;;;;;;6.30;4.70;;;11.30;99.90;;;;;;5014098;28;20490;-48
2021/11/03 11:58:40;;;;;;;5.90;4.90;;;11.20;99.90;;;;;;5014497;28;20808;-52
2021/11/03 12:01:14;;;;;;;5.40;4.67;;;11.10;99.90;;;;;;5014535;28;20462;-50
2021/11/03 12:03:58;;;;;;;6.50;4.97;;;11.20;99.90;;;;;;5015743;28;20488;-53
2021/11/03 12:06:51;;;;;;;6.33;5.60;;;11.20;99.90;;;;;;5018263;28;20508;-53
2021/11/03 12:09:19;;;;;;;6.10;5.53;;;11.30;99.90;;;;;;5016046;28;20440;-49
2021/11/03 12:12:00;;;;;;;7.40;6.20;;;11.30;99.90;;;;;;5013300;28;20455;-51
2021/11/03 12:14:50;;;;;;;7.87;5.47;;;11.40;99.90;;;;;;5019217;28;20428;-51
2021/11/03 12:17:39;;;;;;;7.53;4.90;;;11.20;99.90;;;;;;5012514;28;20428;-49
2021/11/03 12:20:26;;;;;;;6.20;5.60;;;11.30;99.90;;;;;;5015510;28;20474;-54
2021/11/03 12:22:56;;;;;;;6.77;5.80;;;11.20;99.90;;;;;;5011791;28;20428;-51
2021/11/03 12:25:24;;;;;;;7.60;6.30;;;11.20;99.90;;;;;;5014887;28;20507;-46
2021/11/03 12:28:12;;;;;;;6.03;5.30;;;11.30;99.90;;;;;;5016527;28;20454;-49
2021/11/03 12:30:45;;;;;;;7.03;5.60;;;11.40;99.90;;;;;;5015032;28;20452;-47
2021/11/03 12:33:16;;;;;;;7.63;5.87;;;11.30;99.90;;;;;;5013460;28;20443;-47
2021/11/03 12:35:46;;;;;;;6.77;6.00;;;11.30;99.90;;;;;;5020537;28;20424;-50
2021/11/03 12:38:13;;;;;;;7.10;6.20;;;11.10;99.90;;;;;;5015942;28;20560;-48
2021/11/03 12:40:44;;;;;;;6.33;5.73;;;11.00;99.90;;;;;;5014972;28;20997;-46
2021/11/03 12:43:16;;;;;;;10.63;6.27;;;11.30;99.90;;;;;;5014662;28;20205;-46
2021/11/03 12:46:13;;;;;;;6.97;6.10;;;11.50;99.90;;;;;;5013928;28;20470;-48
2021/11/03 12:48:47;;;;;;;9.17;6.97;;;11.50;99.90;;;;;;5017020;28;20430;-47
2021/11/03 12:51:19;;;;;;;5.67;5.13;;;11.60;99.90;;;;;;5015977;28;20462;-51
2021/11/03 12:54:09;;;;;;;8.73;5.20;;;11.60;99.90;;;;;;5015125;28;20443;-53
2021/11/03 12:56:39;;;;;;;8.90;5.93;;;11.70;99.90;;;;;;5004189;28;20502;-47
2021/11/03 12:59:22;;;;;;;5.93;4.87;;;11.50;99.90;;;;;;5013583;28;20435;-51